Time;durP1;ratioP1;P1;durP2;ratioP2;P2;SDS_P1;SDS_P2;PMS_P1;PMS_P2;Temp;Humidity;BMP_temperature;BMP_pressure;BME280_temperature;BME280_humidity;BME280_pressure;Samples;Min_cycle;Max_cycle;Signal;HPM_P1;HPM_P2
2022/08/26 00:00:54;;;;;;;17.67;11.27;;;24.40;99.90;;;;;;5005423;28;20448;-70
2022/08/26 00:03:23;;;;;;;13.80;10.83;;;24.40;99.90;;;;;;4998373;28;20496;-70
2022/08/26 00:05:52;;;;;;;14.60;10.60;;;24.40;99.90;;;;;;5008535;28;20980;-71
2022/08/26 00:08:20;;;;;;;12.50;10.37;;;24.40;99.90;;;;;;4996033;28;20532;-69
2022/08/26 00:10:47;;;;;;;17.60;12.20;;;24.40;99.90;;;;;;5001647;28;20434;-69
2022/08/26 00:13:15;;;;;;;19.50;12.17;;;24.30;99.90;;;;;;4998171;28;20969;-69
2022/08/26 00:15:42;;;;;;;15.00;10.87;;;24.30;99.90;;;;;;5004333;28;20847;-70
2022/08/26 00:18:09;;;;;;;14.43;11.87;;;24.30;99.90;;;;;;4994721;28;20999;-69
2022/08/26 00:20:36;;;;;;;15.57;11.27;;;24.30;99.90;;;;;;5008804;28;20516;-70
2022/08/26 00:23:05;;;;;;;12.77;10.60;;;24.30;99.90;;;;;;5007585;28;20468;-69
2022/08/26 00:25:32;;;;;;;12.63;10.93;;;24.30;99.90;;;;;;5008139;28;20448;-69
2022/08/26 00:27:59;;;;;;;13.20;11.43;;;24.30;99.90;;;;;;5001840;28;20931;-70
2022/08/26 00:30:29;;;;;;;19.83;11.00;;;24.30;99.90;;;;;;4999700;28;20528;-70
2022/08/26 00:32:57;;;;;;;14.43;12.17;;;24.20;99.90;;;;;;5005785;28;20467;-71
2022/08/26 00:35:26;;;;;;;17.33;11.43;;;24.20;99.90;;;;;;4995464;28;20437;-69
2022/08/26 00:37:53;;;;;;;15.10;11.70;;;24.20;99.90;;;;;;5001076;28;20526;-70
2022/08/26 00:40:26;;;;;;;12.37;10.87;;;24.10;99.90;;;;;;5002943;28;20443;-69
2022/08/26 00:42:53;;;;;;;15.70;11.10;;;24.20;99.90;;;;;;4998603;28;20440;-68
2022/08/26 00:45:20;;;;;;;16.03;11.70;;;24.10;99.90;;;;;;5009457;28;20464;-69
2022/08/26 00:47:49;;;;;;;16.70;11.80;;;24.00;99.90;;;;;;4993105;28;20523;-70
2022/08/26 00:50:20;;;;;;;16.80;12.17;;;24.00;99.90;;;;;;5005971;28;20478;-69
2022/08/26 00:52:47;;;;;;;13.33;10.67;;;24.00;99.90;;;;;;5000591;28;20495;-69
2022/08/26 00:55:19;;;;;;;13.07;10.33;;;24.00;99.90;;;;;;4993421;28;20434;-70
2022/08/26 00:57:50;;;;;;;13.87;12.20;;;24.00;99.90;;;;;;4996163;28;20437;-71
2022/08/26 01:00:21;;;;;;;15.13;11.37;;;23.90;99.90;;;;;;4991100;28;20927;-68
2022/08/26 01:02:49;;;;;;;16.13;11.03;;;23.90;99.90;;;;;;5001283;28;20436;-69
2022/08/26 01:05:17;;;;;;;16.87;11.63;;;23.90;99.90;;;;;;4994790;28;20492;-69
2022/08/26 01:07:44;;;;;;;16.10;11.90;;;23.90;99.90;;;;;;5008763;28;20442;-70
2022/08/26 01:10:20;;;;;;;13.80;11.27;;;23.90;99.90;;;;;;5004053;28;20459;-71
2022/08/26 01:12:53;;;;;;;19.70;12.90;;;23.90;99.90;;;;;;5001568;28;21005;-68
2022/08/26 01:15:23;;;;;;;13.83;11.77;;;23.80;99.90;;;;;;4997653;28;20556;-73
2022/08/26 01:17:51;;;;;;;13.70;12.30;;;23.80;99.90;;;;;;5004623;28;20441;-69
2022/08/26 01:20:27;;;;;;;13.73;11.70;;;23.80;99.90;;;;;;5010874;28;20925;-68
2022/08/26 01:22:57;;;;;;;13.83;11.83;;;23.80;99.90;;;;;;5008964;28;21002;-69
2022/08/26 01:25:26;;;;;;;15.63;12.03;;;23.80;99.90;;;;;;5013404;28;21000;-69
2022/08/26 01:27:56;;;;;;;17.77;12.97;;;23.80;99.90;;;;;;5002941;28;20437;-70
2022/08/26 01:30:24;;;;;;;17.73;12.13;;;23.70;99.90;;;;;;5003299;28;20463;-70
2022/08/26 01:32:52;;;;;;;14.60;11.83;;;23.70;99.90;;;;;;5003243;28;20529;-68
2022/08/26 01:35:20;;;;;;;15.80;12.43;;;23.70;99.90;;;;;;5002395;28;20445;-69
2022/08/26 01:37:49;;;;;;;20.40;13.30;;;23.70;99.90;;;;;;4999549;28;20523;-69
2022/08/26 01:40:21;;;;;;;16.43;12.20;;;23.70;99.90;;;;;;4994715;28;20446;-71
2022/08/26 01:42:48;;;;;;;13.47;11.83;;;23.70;99.90;;;;;;4991914;28;20454;-69
2022/08/26 01:45:20;;;;;;;13.63;12.23;;;23.70;99.90;;;;;;4997012;28;20563;-70
2022/08/26 01:47:49;;;;;;;15.53;12.80;;;23.70;99.90;;;;;;4995528;28;20437;-70
2022/08/26 01:50:22;;;;;;;18.70;12.47;;;23.70;99.90;;;;;;4997091;28;20916;-69
2022/08/26 01:52:50;;;;;;;14.33;12.57;;;23.70;99.90;;;;;;4985859;28;20523;-70
2022/08/26 01:55:20;;;;;;;15.33;11.90;;;23.70;99.90;;;;;;5001779;28;20439;-70
2022/08/26 01:57:50;;;;;;;17.73;12.47;;;23.70;99.90;;;;;;5006106;28;20471;-68
2022/08/26 02:00:18;;;;;;;16.20;12.00;;;23.60;99.90;;;;;;4990267;28;20582;-68
2022/08/26 02:02:49;;;;;;;18.20;12.67;;;23.60;99.90;;;;;;5004542;28;20911;-70
2022/08/26 02:05:18;;;;;;;16.03;12.03;;;23.70;99.90;;;;;;4996981;28;20470;-70
2022/08/26 02:07:49;;;;;;;15.77;12.43;;;23.70;99.90;;;;;;4982054;28;20537;-70
2022/08/26 02:10:17;;;;;;;12.67;11.37;;;23.60;99.90;;;;;;4987136;28;20484;-69
2022/08/26 02:12:44;;;;;;;19.37;13.23;;;23.60;99.90;;;;;;4987870;28;20924;-68
2022/08/26 02:15:12;;;;;;;17.13;12.40;;;23.60;99.90;;;;;;5005198;28;20920;-71
2022/08/26 02:17:43;;;;;;;18.37;14.17;;;23.60;99.90;;;;;;4991999;28;20436;-68
2022/08/26 02:20:13;;;;;;;17.00;13.70;;;23.60;99.90;;;;;;5004459;28;20444;-70
2022/08/26 02:22:40;;;;;;;15.53;12.97;;;23.50;99.90;;;;;;4990392;28;20436;-68
2022/08/26 02:25:12;;;;;;;14.50;11.43;;;23.50;99.90;;;;;;4990764;28;20472;-70
2022/08/26 02:27:41;;;;;;;16.63;13.73;;;23.50;99.90;;;;;;4990482;28;20435;-71
2022/08/26 02:30:12;;;;;;;16.87;12.00;;;23.40;99.90;;;;;;4998890;28;21007;-71
2022/08/26 02:32:40;;;;;;;16.10;13.00;;;23.40;99.90;;;;;;4989298;28;20438;-70
2022/08/26 02:35:08;;;;;;;15.03;12.20;;;23.50;99.90;;;;;;5001710;28;20434;-70
2022/08/26 02:37:35;;;;;;;17.73;13.37;;;23.50;99.90;;;;;;4996055;28;20529;-70
2022/08/26 02:40:05;;;;;;;15.00;12.40;;;23.50;99.90;;;;;;4994424;28;20472;-70
2022/08/26 02:42:32;;;;;;;15.77;12.80;;;23.50;99.90;;;;;;4993924;28;20516;-70
2022/08/26 02:45:01;;;;;;;18.63;12.77;;;23.50;99.90;;;;;;4994188;28;20523;-69
2022/08/26 02:47:28;;;;;;;15.37;12.40;;;23.40;99.90;;;;;;4993571;28;20520;-68
2022/08/26 02:49:55;;;;;;;17.97;12.47;;;23.40;99.90;;;;;;4986058;28;20532;-70
2022/08/26 02:52:22;;;;;;;15.33;11.77;;;23.30;99.90;;;;;;4998524;28;20450;-70
2022/08/26 02:54:49;;;;;;;13.07;11.73;;;23.20;99.90;;;;;;4991659;28;20548;-70
2022/08/26 02:57:15;;;;;;;16.57;14.07;;;23.20;99.90;;;;;;4984003;28;20445;-70
2022/08/26 02:59:42;;;;;;;14.70;12.87;;;23.10;99.90;;;;;;4993813;28;20522;-70
2022/08/26 03:02:11;;;;;;;19.07;13.13;;;23.10;99.90;;;;;;4983516;28;20448;-70
2022/08/26 03:04:38;;;;;;;21.30;12.80;;;23.00;99.90;;;;;;5000313;28;20489;-70
2022/08/26 03:07:06;;;;;;;14.83;12.20;;;23.00;99.90;;;;;;4997868;28;20846;-70
2022/08/26 03:09:39;;;;;;;18.27;13.03;;;23.00;99.90;;;;;;4996525;28;20443;-70
2022/08/26 03:12:06;;;;;;;14.10;12.70;;;23.00;99.90;;;;;;5003054;28;20429;-70
2022/08/26 03:14:33;;;;;;;20.37;14.00;;;22.90;99.90;;;;;;5002214;28;20547;-70
2022/08/26 03:17:00;;;;;;;21.10;15.20;;;22.90;99.90;;;;;;4997412;28;20427;-70
2022/08/26 03:19:30;;;;;;;13.50;12.10;;;22.80;99.90;;;;;;4993130;28;20435;-70
2022/08/26 03:21:58;;;;;;;22.77;15.20;;;22.70;99.90;;;;;;5004547;28;20827;-71
2022/08/26 03:24:26;;;;;;;13.73;12.30;;;22.70;99.90;;;;;;5003776;28;20486;-70
2022/08/26 03:26:53;;;;;;;17.57;13.93;;;22.70;99.90;;;;;;5007000;28;20523;-70
2022/08/26 03:32:05;;;;;;;22.07;13.50;;;22.60;99.90;;;;;;5003996;28;20434;-70
2022/08/26 03:34:33;;;;;;;19.23;14.07;;;22.50;99.90;;;;;;5001158;28;20548;-70
2022/08/26 03:37:00;;;;;;;17.63;12.90;;;22.40;99.90;;;;;;5008331;28;20432;-70
2022/08/26 03:39:27;;;;;;;17.20;14.47;;;22.40;99.90;;;;;;4997772;28;20446;-70
2022/08/26 03:41:54;;;;;;;17.93;14.43;;;22.40;99.90;;;;;;4992422;28;20636;-70
2022/08/26 03:44:22;;;;;;;16.13;14.20;;;22.40;99.90;;;;;;4990613;28;20557;-70
2022/08/26 03:46:49;;;;;;;19.03;13.70;;;22.40;99.90;;;;;;4993217;28;20827;-70
2022/08/26 03:49:16;;;;;;;15.27;13.70;;;22.30;99.90;;;;;;4994434;28;20445;-70
2022/08/26 03:51:44;;;;;;;18.70;13.50;;;22.30;99.90;;;;;;4995494;28;20522;-70
2022/08/26 03:54:11;;;;;;;18.97;14.57;;;22.30;99.90;;;;;;4997110;28;20880;-70
2022/08/26 03:56:38;;;;;;;18.57;14.47;;;22.40;99.90;;;;;;5003748;28;20483;-70
2022/08/26 03:59:06;;;;;;;14.90;13.37;;;22.40;99.90;;;;;;5002983;28;20472;-68
2022/08/26 04:01:33;;;;;;;19.20;14.70;;;22.40;99.90;;;;;;5004307;28;20440;-69
2022/08/26 04:04:00;;;;;;;25.37;16.67;;;22.40;99.90;;;;;;5007599;28;20487;-68
2022/08/26 04:06:29;;;;;;;19.83;14.07;;;22.40;99.90;;;;;;5009514;28;20475;-69
2022/08/26 04:08:59;;;;;;;21.30;13.80;;;22.40;99.90;;;;;;4997813;28;20444;-70
2022/08/26 04:11:30;;;;;;;16.00;14.40;;;22.40;99.90;;;;;;5004239;28;20452;-70
2022/08/26 04:13:59;;;;;;;17.40;13.67;;;22.40;99.90;;;;;;5004432;28;20456;-70
2022/08/26 04:16:28;;;;;;;15.70;14.00;;;22.40;99.90;;;;;;5012032;28;20490;-69
2022/08/26 04:18:55;;;;;;;18.80;13.60;;;22.40;99.90;;;;;;5003405;28;20438;-68
2022/08/26 04:21:22;;;;;;;19.97;15.63;;;22.50;99.90;;;;;;5003647;28;20999;-70
2022/08/26 04:23:58;;;;;;;20.03;15.97;;;22.40;99.90;;;;;;5007239;28;20527;-69
2022/08/26 04:26:26;;;;;;;19.13;14.37;;;22.40;99.90;;;;;;5002979;28;21049;-70
2022/08/26 04:28:54;;;;;;;24.27;15.87;;;22.40;99.90;;;;;;5003923;28;20538;-69
2022/08/26 04:31:25;;;;;;;20.00;15.67;;;22.40;99.90;;;;;;4983553;28;20449;-71
2022/08/26 04:33:51;;;;;;;19.63;14.50;;;22.40;99.90;;;;;;5006791;28;21043;-71
2022/08/26 04:36:18;;;;;;;20.40;13.73;;;22.40;99.90;;;;;;4999375;28;20953;-71
2022/08/26 04:38:45;;;;;;;21.03;15.70;;;22.30;99.90;;;;;;5007374;28;20440;-71
2022/08/26 04:41:14;;;;;;;18.50;14.53;;;22.40;99.90;;;;;;4988744;28;20433;-71
2022/08/26 04:43:41;;;;;;;20.10;15.60;;;22.40;99.90;;;;;;5002859;28;20467;-71
2022/08/26 04:46:09;;;;;;;17.60;14.77;;;22.40;99.90;;;;;;4996597;28;20574;-70
2022/08/26 04:48:36;;;;;;;19.40;14.33;;;22.40;99.90;;;;;;4992581;28;20441;-71
2022/08/26 04:51:03;;;;;;;25.97;17.30;;;22.50;99.90;;;;;;4990814;28;20465;-73
2022/08/26 04:53:31;;;;;;;22.40;15.83;;;22.40;99.90;;;;;;4994157;28;20472;-71
2022/08/26 04:55:58;;;;;;;17.20;14.30;;;22.50;99.90;;;;;;5000552;28;20441;-71
2022/08/26 04:58:27;;;;;;;21.33;16.00;;;22.60;99.90;;;;;;5005852;28;20454;-70
2022/08/26 05:00:56;;;;;;;18.23;15.70;;;22.60;99.90;;;;;;4996956;28;20524;-71
2022/08/26 05:03:24;;;;;;;26.23;16.10;;;22.60;99.90;;;;;;4991463;28;20465;-69
2022/08/26 05:05:51;;;;;;;27.07;16.50;;;22.60;99.90;;;;;;4999188;28;20608;-69
2022/08/26 05:08:21;;;;;;;18.93;15.53;;;22.60;99.90;;;;;;4999736;28;20441;-70
2022/08/26 05:10:51;;;;;;;19.00;17.10;;;22.60;99.90;;;;;;4997094;28;20454;-69
2022/08/26 05:13:20;;;;;;;16.60;14.77;;;22.70;99.90;;;;;;5002275;28;20460;-71
2022/08/26 05:15:49;;;;;;;28.43;18.50;;;22.70;99.90;;;;;;5000755;28;20433;-71
2022/08/26 05:18:19;;;;;;;16.93;14.30;;;22.90;99.90;;;;;;5007679;28;20455;-70
2022/08/26 05:20:50;;;;;;;21.40;15.13;;;22.90;99.90;;;;;;5004010;28;20480;-69
2022/08/26 05:23:18;;;;;;;23.73;16.93;;;23.00;99.90;;;;;;5005469;28;20551;-67
2022/08/26 05:25:47;;;;;;;28.07;17.40;;;23.10;99.90;;;;;;4993558;28;20556;-68
2022/08/26 05:28:16;;;;;;;18.60;14.80;;;23.10;99.90;;;;;;4989273;28;20446;-71
2022/08/26 05:30:43;;;;;;;19.73;17.40;;;23.30;99.90;;;;;;4996926;28;20432;-71
2022/08/26 05:33:13;;;;;;;19.70;16.00;;;23.60;99.90;;;;;;4995195;28;20463;-72
2022/08/26 05:35:40;;;;;;;23.30;16.80;;;23.80;99.90;;;;;;5004878;28;21101;-72
2022/08/26 05:38:10;;;;;;;23.60;15.90;;;24.00;99.90;;;;;;4999562;28;20473;-71
2022/08/26 05:40:40;;;;;;;21.83;16.23;;;24.20;99.90;;;;;;4998978;28;20858;-72
2022/08/26 05:43:09;;;;;;;19.00;14.33;;;24.60;99.90;;;;;;5000742;28;20493;-71
2022/08/26 05:45:37;;;;;;;18.00;13.97;;;25.30;99.90;;;;;;5001039;28;20516;-71
2022/08/26 05:48:06;;;;;;;18.93;14.83;;;26.10;99.90;;;;;;4994817;28;20786;-70
2022/08/26 05:50:38;;;;;;;23.70;16.13;;;26.70;99.90;;;;;;4988810;28;20504;-71
2022/08/26 05:53:06;;;;;;;16.50;14.80;;;27.30;99.90;;;;;;4993541;28;20861;-72
2022/08/26 05:55:33;;;;;;;13.90;12.47;;;27.90;99.90;;;;;;4994263;28;20540;-72
2022/08/26 05:58:04;;;;;;;18.10;13.50;;;28.50;99.90;;;;;;4999922;28;20527;-72
2022/08/26 06:00:31;;;;;;;16.00;12.63;;;28.90;99.90;;;;;;4998588;28;20787;-72
2022/08/26 06:02:58;;;;;;;17.50;14.90;;;29.20;99.80;;;;;;5007838;28;20450;-72
2022/08/26 06:05:25;;;;;;;19.53;14.40;;;29.10;98.30;;;;;;4992191;28;20465;-70
2022/08/26 06:08:12;;;;;;;19.30;16.47;;;28.60;99.30;;;;;;4987506;28;20441;-70
2022/08/26 06:10:44;;;;;;;20.47;16.27;;;28.00;99.90;;;;;;4992623;28;20432;-70
2022/08/26 06:13:19;;;;;;;22.20;16.10;;;27.20;99.90;;;;;;4990145;28;20476;-71
2022/08/26 06:15:48;;;;;;;23.83;16.13;;;26.70;99.90;;;;;;4994628;28;20915;-71
2022/08/26 06:18:18;;;;;;;17.43;14.83;;;27.00;99.90;;;;;;4997019;28;20454;-72
2022/08/26 06:20:47;;;;;;;25.17;16.30;;;27.80;99.90;;;;;;4982790;28;20450;-72
2022/08/26 06:26:03;;;;;;;18.27;13.70;;;29.30;99.10;;;;;;4989489;28;20601;-72
2022/08/26 06:28:30;;;;;;;21.03;13.97;;;30.40;96.70;;;;;;5000965;28;20532;-71
2022/08/26 06:30:57;;;;;;;34.93;31.47;;;31.00;94.40;;;;;;4992192;28;20959;-72
2022/08/26 06:33:24;;;;;;;17.97;14.10;;;31.20;93.70;;;;;;4996132;28;20471;-72
2022/08/26 06:35:52;;;;;;;27.20;15.73;;;31.60;93.10;;;;;;5008704;28;20440;-70
2022/08/26 06:38:22;;;;;;;24.50;19.80;;;32.20;91.80;;;;;;5000310;28;20913;-69
2022/08/26 06:40:53;;;;;;;21.40;14.93;;;32.60;91.00;;;;;;5005401;28;20530;-73
2022/08/26 06:43:23;;;;;;;25.60;16.97;;;32.60;90.30;;;;;;5000931;28;20464;-72
2022/08/26 06:45:50;;;;;;;24.40;16.00;;;32.50;90.60;;;;;;4997111;28;20804;-71
2022/08/26 06:48:20;;;;;;;23.47;21.07;;;33.00;90.00;;;;;;4992891;28;20455;-70
2022/08/26 06:50:48;;;;;;;13.90;11.50;;;32.70;89.90;;;;;;4996064;28;20437;-72
2022/08/26 06:53:15;;;;;;;17.13;13.30;;;33.00;89.40;;;;;;4997297;28;20532;-72
2022/08/26 06:55:46;;;;;;;16.03;11.87;;;33.30;88.10;;;;;;4985954;28;20741;-72
2022/08/26 06:58:15;;;;;;;17.13;12.40;;;33.60;87.50;;;;;;4990597;28;20796;-74
2022/08/26 07:00:43;;;;;;;19.20;13.67;;;34.10;85.90;;;;;;4994114;28;20444;-72
2022/08/26 07:03:12;;;;;;;27.60;13.03;;;34.30;85.10;;;;;;4997245;28;20495;-72
2022/08/26 07:05:39;;;;;;;15.23;12.03;;;34.00;84.80;;;;;;5001092;28;20544;-74
2022/08/26 07:08:06;;;;;;;16.43;13.17;;;34.50;84.40;;;;;;5004352;28;20455;-71
2022/08/26 07:10:34;;;;;;;17.33;12.33;;;34.90;82.70;;;;;;4995408;28;20437;-71
2022/08/26 07:13:02;;;;;;;16.50;14.53;;;35.40;81.60;;;;;;4995312;28;20789;-71
2022/08/26 07:15:29;;;;;;;14.73;12.80;;;35.40;80.70;;;;;;4994653;28;20453;-71
2022/08/26 07:17:57;;;;;;;17.87;11.47;;;35.80;79.70;;;;;;4996022;28;20506;-71
2022/08/26 07:20:25;;;;;;;19.30;12.67;;;35.70;79.10;;;;;;5000374;28;20465;-71
2022/08/26 07:22:52;;;;;;;16.50;12.47;;;36.30;77.90;;;;;;4998063;28;20439;-71
2022/08/26 07:25:19;;;;;;;17.07;12.30;;;36.70;77.40;;;;;;5004733;28;20952;-71
2022/08/26 07:27:46;;;;;;;14.07;11.50;;;36.80;75.90;;;;;;4988564;28;20540;-71
2022/08/26 07:30:15;;;;;;;22.83;16.33;;;36.80;76.10;;;;;;4994960;28;20453;-73
2022/08/26 07:32:42;;;;;;;17.03;12.97;;;36.90;75.50;;;;;;5001838;28;20440;-71
2022/08/26 07:35:09;;;;;;;16.83;12.70;;;36.70;75.30;;;;;;5011115;28;20475;-72
2022/08/26 07:37:36;;;;;;;19.00;13.27;;;36.80;74.80;;;;;;4983886;28;20805;-71
2022/08/26 07:40:04;;;;;;;17.97;12.80;;;36.60;75.40;;;;;;4995763;28;20560;-71
2022/08/26 07:42:31;;;;;;;13.90;12.47;;;36.90;75.20;;;;;;4998155;28;20464;-72
2022/08/26 07:44:58;;;;;;;19.50;13.47;;;37.50;74.20;;;;;;4990528;28;20493;-72
2022/08/26 07:47:30;;;;;;;20.93;13.53;;;37.20;73.10;;;;;;4999929;28;20468;-73
2022/08/26 07:49:57;;;;;;;20.20;10.03;;;37.20;73.40;;;;;;5002251;28;20486;-70
2022/08/26 07:52:27;;;;;;;17.60;11.33;;;37.40;73.50;;;;;;5003588;28;20475;-71
2022/08/26 07:54:55;;;;;;;20.60;13.00;;;37.50;72.90;;;;;;4990275;28;20461;-71
2022/08/26 07:57:22;;;;;;;19.13;11.10;;;37.30;72.30;;;;;;5001899;28;20788;-71
2022/08/26 07:59:49;;;;;;;15.97;11.90;;;37.50;72.20;;;;;;4997161;28;20919;-70
2022/08/26 08:02:16;;;;;;;18.93;12.10;;;37.50;72.00;;;;;;4996680;28;20853;-71
2022/08/26 08:04:44;;;;;;;13.97;12.50;;;37.60;72.00;;;;;;4989073;28;20538;-72
2022/08/26 08:07:11;;;;;;;17.53;11.27;;;37.60;71.10;;;;;;5002636;28;20479;-71
2022/08/26 08:09:38;;;;;;;15.40;10.70;;;37.40;71.70;;;;;;5002586;28;20531;-72
2022/08/26 08:12:05;;;;;;;21.37;14.00;;;37.80;72.20;;;;;;5008689;28;21018;-71
2022/08/26 08:14:33;;;;;;;15.20;13.23;;;37.80;70.80;;;;;;5004396;28;20904;-71
2022/08/26 08:17:00;;;;;;;20.17;14.27;;;37.20;71.50;;;;;;5005723;28;20522;-71
2022/08/26 08:19:27;;;;;;;16.53;13.37;;;37.00;72.20;;;;;;5005393;28;20844;-70
2022/08/26 08:21:55;;;;;;;12.23;10.83;;;36.80;72.80;;;;;;5005971;28;20444;-70
2022/08/26 08:24:22;;;;;;;14.40;12.67;;;36.70;72.90;;;;;;5000142;28;20520;-71
2022/08/26 08:26:50;;;;;;;15.40;11.50;;;36.80;73.20;;;;;;4998489;28;20888;-71
2022/08/26 08:29:17;;;;;;;16.10;10.93;;;36.60;72.90;;;;;;4991469;28;20854;-72
2022/08/26 08:31:47;;;;;;;14.90;10.70;;;36.50;73.90;;;;;;4984542;28;20833;-71
2022/08/26 08:34:14;;;;;;;15.63;10.93;;;36.50;73.80;;;;;;4999487;28;20460;-71
2022/08/26 08:36:41;;;;;;;16.63;10.77;;;35.90;74.40;;;;;;4998659;28;20518;-71
2022/08/26 08:39:10;;;;;;;15.43;11.37;;;35.70;75.10;;;;;;5002464;28;20467;-71
2022/08/26 08:41:49;;;;;;;15.70;11.20;;;35.60;75.90;;;;;;4993437;28;20535;-71
2022/08/26 08:44:20;;;;;;;21.57;10.70;;;35.30;75.90;;;;;;4991758;28;20548;-71
2022/08/26 08:46:50;;;;;;;11.47;10.20;;;34.90;77.50;;;;;;4993067;28;20511;-71
2022/08/26 08:49:18;;;;;;;18.37;10.67;;;34.50;78.60;;;;;;4983071;28;21076;-71
2022/08/26 08:51:50;;;;;;;16.80;9.17;;;34.40;78.40;;;;;;5002345;28;20535;-71
2022/08/26 08:54:18;;;;;;;10.77;8.70;;;34.40;78.50;;;;;;5010135;28;20477;-72
2022/08/26 08:56:51;;;;;;;15.37;9.80;;;35.10;77.50;;;;;;5002533;28;20447;-72
2022/08/26 08:59:20;;;;;;;13.27;10.27;;;35.30;76.00;;;;;;4997527;28;20444;-72
2022/08/26 09:01:55;;;;;;;20.90;11.53;;;35.50;75.40;;;;;;5013508;28;20444;-71
2022/08/26 09:04:54;;;;;;;13.93;9.77;;;35.60;75.00;;;;;;4991459;28;20470;-71
2022/08/26 09:07:27;;;;;;;16.70;10.70;;;35.60;74.80;;;;;;4991490;28;20477;-71
2022/08/26 09:09:59;;;;;;;17.80;8.03;;;35.70;74.60;;;;;;5001239;28;20459;-71
2022/08/26 09:12:29;;;;;;;14.67;11.00;;;36.20;73.40;;;;;;4997146;28;20438;-73
2022/08/26 09:15:01;;;;;;;16.27;9.63;;;36.10;73.00;;;;;;4991086;28;20493;-72
2022/08/26 09:17:39;;;;;;;13.53;9.87;;;36.10;73.50;;;;;;4996613;28;20788;-71
2022/08/26 09:20:13;;;;;;;18.33;9.73;;;35.90;73.80;;;;;;5005217;28;20467;-71
2022/08/26 09:22:41;;;;;;;13.17;8.60;;;35.80;73.90;;;;;;4999562;28;20443;-70
2022/08/26 09:25:13;;;;;;;21.97;18.53;;;36.10;74.10;;;;;;4998206;28;20440;-70
2022/08/26 09:27:46;;;;;;;14.07;9.47;;;36.50;72.90;;;;;;4996218;28;20487;-72
2022/08/26 09:30:18;;;;;;;11.73;8.13;;;36.80;72.80;;;;;;4990750;28;20485;-72
2022/08/26 09:32:58;;;;;;;14.00;7.70;;;37.20;71.10;;;;;;4996847;28;20484;-72
2022/08/26 09:35:29;;;;;;;11.57;9.53;;;37.60;69.90;;;;;;4991606;28;20958;-71
2022/08/26 09:37:57;;;;;;;14.17;8.90;;;36.70;70.70;;;;;;5000654;28;20433;-70
2022/08/26 09:40:30;;;;;;;15.97;8.37;;;36.50;71.30;;;;;;4998445;28;20436;-72
2022/08/26 09:43:14;;;;;;;14.90;8.47;;;36.20;71.70;;;;;;4995504;28;20475;-71
2022/08/26 09:45:43;;;;;;;10.83;8.20;;;35.60;72.30;;;;;;4996246;28;20442;-71
2022/08/26 09:48:12;;;;;;;10.70;8.13;;;35.20;73.30;;;;;;4987991;28;20844;-72
2022/08/26 09:50:51;;;;;;;12.30;8.27;;;35.10;73.00;;;;;;5003169;28;20873;-71
2022/08/26 09:53:22;;;;;;;12.67;7.87;;;34.90;72.80;;;;;;4991351;28;20591;-72
2022/08/26 09:55:53;;;;;;;17.73;9.47;;;35.10;72.80;;;;;;4984669;28;20916;-71
2022/08/26 09:58:33;;;;;;;27.73;9.83;;;35.10;73.60;;;;;;4993515;28;20453;-72
2022/08/26 10:01:04;;;;;;;14.30;8.60;;;35.00;74.30;;;;;;4990829;28;20522;-71
2022/08/26 10:03:34;;;;;;;11.33;8.00;;;34.50;74.50;;;;;;4990807;28;20552;-72
2022/08/26 10:06:03;;;;;;;14.43;8.90;;;34.80;74.80;;;;;;4996996;28;20450;-72
2022/08/26 10:08:33;;;;;;;12.63;9.87;;;34.60;75.50;;;;;;4994643;28;20904;-71
2022/08/26 10:11:05;;;;;;;16.90;9.07;;;34.60;76.50;;;;;;4994669;28;20911;-71
2022/08/26 10:13:35;;;;;;;14.33;10.47;;;34.50;76.80;;;;;;4996735;28;20556;-70
2022/08/26 10:16:14;;;;;;;12.07;8.03;;;34.20;77.70;;;;;;4987713;28;20920;-72
2022/08/26 10:18:46;;;;;;;13.83;9.47;;;34.60;77.40;;;;;;5005862;28;20925;-71
2022/08/26 10:21:17;;;;;;;15.80;10.77;;;34.50;76.80;;;;;;4993347;28;20446;-71
2022/08/26 10:23:49;;;;;;;20.23;10.53;;;34.30;77.10;;;;;;4997599;28;20460;-72
2022/08/26 10:26:23;;;;;;;18.97;9.80;;;34.30;77.60;;;;;;4987706;28;20825;-71
2022/08/26 10:28:56;;;;;;;13.27;8.30;;;34.60;76.30;;;;;;4985516;28;20475;-72
2022/08/26 10:31:27;;;;;;;20.40;8.40;;;34.80;76.00;;;;;;5001371;28;20457;-71
2022/08/26 10:33:55;;;;;;;21.03;9.40;;;35.50;74.60;;;;;;4999451;28;20898;-71
2022/08/26 10:39:18;;;;;;;13.23;8.07;;;35.10;74.70;;;;;;4997557;28;20427;-72
2022/08/26 10:41:49;;;;;;;16.40;8.80;;;34.80;74.50;;;;;;4994808;28;20867;-71
2022/08/26 10:44:18;;;;;;;11.87;9.03;;;34.30;75.70;;;;;;5003624;28;20550;-71
2022/08/26 10:46:50;;;;;;;10.97;8.67;;;34.10;76.00;;;;;;4998150;28;20480;-72
2022/08/26 10:49:17;;;;;;;19.23;8.73;;;33.70;77.20;;;;;;5007847;28;20929;-72
2022/08/26 10:51:53;;;;;;;18.23;8.97;;;33.60;77.30;;;;;;5000993;28;20449;-70
2022/08/26 10:54:25;;;;;;;13.13;7.30;;;33.60;77.40;;;;;;4996763;28;20978;-71
2022/08/26 10:57:01;;;;;;;10.50;7.87;;;33.60;77.40;;;;;;5001398;28;20871;-70
2022/08/26 10:59:42;;;;;;;10.60;7.97;;;33.80;77.00;;;;;;4993110;28;20520;-71
2022/08/26 11:02:17;;;;;;;16.87;9.20;;;34.10;76.30;;;;;;4995157;28;20433;-71
2022/08/26 11:04:51;;;;;;;15.17;8.73;;;33.80;76.50;;;;;;4996082;28;20538;-72
2022/08/26 11:07:47;;;;;;;10.17;7.83;;;33.20;77.50;;;;;;4999746;28;21074;-72
2022/08/26 11:11:03;;;;;;;14.80;8.30;;;33.20;78.00;;;;;;4987819;28;20455;-71
2022/08/26 11:14:03;;;;;;;15.33;9.27;;;33.50;77.50;;;;;;4989434;28;20467;-71
2022/08/26 11:16:39;;;;;;;13.30;8.90;;;33.40;77.80;;;;;;4995230;28;20445;-71
2022/08/26 11:19:08;;;;;;;18.87;8.97;;;32.90;77.80;;;;;;4996924;28;20445;-72
2022/08/26 11:22:01;;;;;;;18.03;9.37;;;33.00;78.30;;;;;;4998145;28;20468;-71
2022/08/26 11:24:45;;;;;;;19.80;9.23;;;32.50;79.80;;;;;;4993673;28;20801;-71
2022/08/26 11:27:53;;;;;;;14.90;8.97;;;32.50;80.20;;;;;;4991023;28;20534;-71
2022/08/26 11:30:54;;;;;;;13.80;9.23;;;32.60;80.60;;;;;;5001795;28;20817;-71
2022/08/26 11:33:57;;;;;;;18.97;9.87;;;32.70;80.00;;;;;;4999715;28;20538;-71
2022/08/26 11:36:57;;;;;;;16.97;10.20;;;32.50;80.60;;;;;;5005064;28;20438;-70
2022/08/26 11:39:31;;;;;;;13.37;10.43;;;32.40;80.40;;;;;;5003359;28;20479;-71
2022/08/26 11:42:01;;;;;;;16.80;10.10;;;32.50;80.60;;;;;;4993594;28;20431;-73
2022/08/26 11:44:37;;;;;;;16.33;8.23;;;32.60;80.50;;;;;;5012538;28;20474;-71
2022/08/26 11:47:06;;;;;;;12.37;9.53;;;32.90;79.90;;;;;;5000140;28;20507;-72
2022/08/26 11:49:34;;;;;;;15.37;10.93;;;32.90;79.90;;;;;;5000917;28;20550;-72
2022/08/26 11:52:17;;;;;;;19.80;9.80;;;33.20;80.00;;;;;;4981224;28;20600;-70
2022/08/26 11:55:01;;;;;;;19.00;8.50;;;33.10;79.90;;;;;;4986987;28;20535;-70
2022/08/26 11:57:30;;;;;;;12.17;8.20;;;33.00;80.30;;;;;;4993385;28;20535;-70
2022/08/26 11:59:58;;;;;;;20.03;9.53;;;32.90;80.60;;;;;;5001918;28;20462;-73
2022/08/26 12:02:26;;;;;;;14.03;8.40;;;33.00;80.30;;;;;;5000354;28;20951;-71
2022/08/26 12:04:55;;;;;;;12.87;8.97;;;33.00;80.00;;;;;;4990712;28;20543;-71
2022/08/26 12:07:25;;;;;;;16.63;9.50;;;33.00;80.00;;;;;;4995445;28;20556;-71
2022/08/26 12:09:55;;;;;;;15.47;9.13;;;32.90;79.90;;;;;;4994747;28;20452;-71
2022/08/26 12:12:26;;;;;;;13.50;8.80;;;32.70;80.20;;;;;;5002301;28;20440;-71
2022/08/26 12:15:13;;;;;;;13.70;9.80;;;32.50;80.60;;;;;;5002124;28;20955;-72
2022/08/26 12:17:42;;;;;;;13.03;9.50;;;32.10;81.60;;;;;;4997706;28;20462;-72
2022/08/26 12:20:44;;;;;;;13.80;8.73;;;32.10;82.40;;;;;;5000222;28;20520;-75
2022/08/26 12:23:22;;;;;;;12.20;8.47;;;32.20;82.00;;;;;;4996087;28;20460;-73
2022/08/26 12:25:51;;;;;;;16.53;9.53;;;32.30;82.10;;;;;;4982896;28;20531;-73
2022/08/26 12:28:29;;;;;;;17.73;10.43;;;32.20;82.10;;;;;;4996810;28;20965;-73
2022/08/26 12:31:01;;;;;;;21.73;10.63;;;32.30;82.50;;;;;;4998661;28;20483;-72
2022/08/26 12:33:31;;;;;;;13.27;10.73;;;32.30;82.60;;;;;;4996525;28;20511;-74
2022/08/26 12:36:01;;;;;;;12.70;11.27;;;32.50;83.10;;;;;;4996438;28;20458;-75
2022/08/26 12:38:28;;;;;;;13.37;11.53;;;32.50;84.10;;;;;;5028699;22;20480;-84
2022/08/26 12:40:56;;;;;;;16.50;12.77;;;32.40;84.50;;;;;;5037644;28;20451;-82
2022/08/26 12:43:41;;;;;;;27.43;14.07;;;32.30;86.20;;;;;;5032760;28;20473;-82
2022/08/26 12:46:11;;;;;;;19.30;13.03;;;32.10;87.40;;;;;;5028018;28;20487;-82
2022/08/26 12:48:44;;;;;;;19.30;12.80;;;31.90;88.40;;;;;;5024657;28;20512;-79
2022/08/26 12:51:22;;;;;;;18.63;13.17;;;31.80;89.30;;;;;;5013509;28;20434;-82
2022/08/26 12:53:49;;;;;;;15.07;12.57;;;31.80;90.00;;;;;;5028995;28;20487;-81